Time;durP1;ratioP1;P1;durP2;ratioP2;P2;SDS_P1;SDS_P2;PMS_P1;PMS_P2;Temp;Humidity;BMP_temperature;BMP_pressure;BME280_temperature;BME280_humidity;BME280_pressure;Samples;Min_cycle;Max_cycle;Signal;HPM_P1;HPM_P2
2020/01/17 00:00:37;;;;;;;28;23.5;;;;;;;2.91;91.77441;966.1063;;;;
2020/01/17 00:03:02;;;;;;;30.3;26.1;;;;;;;2.72;93.03516;966.0046;;;;
2020/01/17 00:05:27;;;;;;;36.2;30.1;;;;;;;2.69;93.35645;966.036;;;;
2020/01/17 00:07:52;;;;;;;36.1;29.6;;;;;;;2.57;93.81543;965.9943;;;;
2020/01/17 00:10:17;;;;;;;32.9;27.6;;;;;;;2.58;93.46875;966.0162;;;;
2020/01/17 00:12:42;;;;;;;33.3;28.1;;;;;;;2.45;94.91895;965.9953;;;;
2020/01/17 00:15:08;;;;;;;34.4;28.9;;;;;;;2.46;94.70605;965.9697;;;;
2020/01/17 00:17:32;;;;;;;30.9;26.5;;;;;;;2.5;94.06055;965.9148;;;;
2020/01/17 00:19:58;;;;;;;31.6;26.3;;;;;;;2.57;93.99805;965.9626;;;;
2020/01/17 00:22:23;;;;;;;34;28;;;;;;;2.56;93.91504;965.9361;;;;
2020/01/17 00:24:48;;;;;;;31.3;26.1;;;;;;;2.47;94.31055;965.9561;;;;
2020/01/17 00:27:13;;;;;;;30.2;25.8;;;;;;;2.54;94.0918;965.8936;;;;
2020/01/17 00:29:46;;;;;;;30.9;25.5;;;;;;;2.61;93.65527;965.8264;;;;
2020/01/17 00:35:40;;;;;;;29.8;25.3;;;;;;;2.52;93.18359;965.7536;;;;
2020/01/17 00:39:26;;;;;;;30;25.2;;;;;;;2.51;93.67676;965.7477;;;;
2020/01/17 00:41:49;;;;;;;31.6;27.2;;;;;;;2.42;93.77051;965.6844;;;;
2020/01/17 00:44:14;;;;;;;32.8;27.5;;;;;;;2.42;93.87207;965.6972;;;;
2020/01/17 00:46:40;;;;;;;34.8;28.8;;;;;;;2.41;93.59863;965.6439;;;;
2020/01/17 00:49:06;;;;;;;33.7;29.1;;;;;;;2.46;93.83691;965.6017;;;;
2020/01/17 00:51:31;;;;;;;35;30.1;;;;;;;2.45;93.70117;965.5703;;;;
2020/01/17 00:53:56;;;;;;;31.7;28.1;;;;;;;2.46;93.54297;965.5695;;;;
2020/01/17 00:56:21;;;;;;;34.5;27.7;;;;;;;2.46;93.63281;965.5013;;;;
2020/01/17 00:58:47;;;;;;;29.5;25.4;;;;;;;2.42;94.17871;965.5092;;;;
2020/01/17 01:01:12;;;;;;;30.2;26.1;;;;;;;2.44;94.18066;965.454;;;;
2020/01/17 01:03:37;;;;;;;31.6;26.6;;;;;;;2.33;95.02832;965.4899;;;;
2020/01/17 01:06:02;;;;;;;32.4;27.3;;;;;;;2.38;94.58691;965.4233;;;;
2020/01/17 01:08:28;;;;;;;30.6;26.4;;;;;;;2.44;94.27246;965.4045;;;;
2020/01/17 01:10:53;;;;;;;33.6;27.4;;;;;;;2.38;94.8125;965.4088;;;;
2020/01/17 01:13:24;;;;;;;29.9;25.8;;;;;;;2.4;94.09375;965.3931;;;;
2020/01/17 01:15:49;;;;;;;32.9;26.7;;;;;;;2.38;94.27051;965.3806;;;;
2020/01/17 01:18:14;;;;;;;31.1;25.6;;;;;;;2.41;93.88086;965.3753;;;;
2020/01/17 01:20:47;;;;;;;33.5;27.6;;;;;;;2.28;94.61914;965.444;;;;
2020/01/17 01:23:12;;;;;;;30.2;25.1;;;;;;;2.41;94.02832;965.3309;;;;
2020/01/17 01:25:37;;;;;;;28.4;24.7;;;;;;;2.42;93.83984;965.2918;;;;
2020/01/17 01:28:02;;;;;;;27.8;24.4;;;;;;;2.42;93.70215;965.28;;;;
2020/01/17 01:30:27;;;;;;;30.4;25.6;;;;;;;2.35;94.24219;965.2913;;;;
2020/01/17 01:32:52;;;;;;;27.3;23.9;;;;;;;2.29;94.3291;965.32;;;;
2020/01/17 01:35:18;;;;;;;30.7;25.8;;;;;;;2.19;94.81543;965.4282;;;;
2020/01/17 01:37:43;;;;;;;31;25.1;;;;;;;2.2;95.43848;965.3962;;;;
2020/01/17 01:40:28;;;;;;;30;25.5;;;;;;;2.28;95.49023;965.3558;;;;
2020/01/17 01:42:53;;;;;;;30.6;25;;;;;;;2.27;95.57813;965.3605;;;;
2020/01/17 01:45:18;;;;;;;33.9;26.8;;;;;;;2.26;96.00488;965.2925;;;;
2020/01/17 01:47:43;;;;;;;30.7;26;;;;;;;2.33;95.78223;965.2297;;;;
2020/01/17 01:50:08;;;;;;;27.8;24.3;;;;;;;2.32;95.61328;965.2019;;;;
2020/01/17 01:52:33;;;;;;;27.2;23.8;;;;;;;2.4;95.06445;965.1696;;;;
2020/01/17 01:54:58;;;;;;;29.7;24.5;;;;;;;2.37;94.99316;965.1561;;;;
2020/01/17 01:57:23;;;;;;;32.6;25.9;;;;;;;2.26;95.91504;965.0898;;;;
2020/01/17 01:59:49;;;;;;;30.9;24.6;;;;;;;2.18;96.46094;965.0903;;;;
2020/01/17 02:02:19;;;;;;;30.4;25;;;;;;;2.4;95.22461;965.0814;;;;
2020/01/17 02:05:58;;;;;;;29.3;24.9;;;;;;;2.43;94.66602;965.0115;;;;
2020/01/17 02:08:23;;;;;;;29.2;24.6;;;;;;;2.41;94.37793;964.9869;;;;
2020/01/17 02:10:48;;;;;;;28.7;23.5;;;;;;;2.35;94.47852;964.9664;;;;
2020/01/17 02:13:13;;;;;;;28.2;23.4;;;;;;;2.39;94.41895;964.9542;;;;
2020/01/17 02:15:38;;;;;;;31.2;24.3;;;;;;;2.21;94.9209;964.8768;;;;
2020/01/17 02:18:03;;;;;;;28;23.2;;;;;;;2.29;94.85059;964.9045;;;;
2020/01/17 02:20:29;;;;;;;28.2;22.8;;;;;;;2.21;95.27051;964.8706;;;;
2020/01/17 02:22:54;;;;;;;29.5;22.7;;;;;;;2.34;94.81543;964.8591;;;;
2020/01/17 02:25:19;;;;;;;27.4;22.7;;;;;;;2.35;94.65918;964.8169;;;;
2020/01/17 02:27:44;;;;;;;28.3;22.5;;;;;;;2.32;94.60645;964.8456;;;;
2020/01/17 02:30:22;;;;;;;27.6;23.5;;;;;;;2.38;94.53027;964.8414;;;;
2020/01/17 02:32:49;;;;;;;26.6;22.8;;;;;;;2.29;94.95215;964.845;;;;
2020/01/17 02:35:20;;;;;;;28.1;22.3;;;;;;;2.33;94.83398;964.8541;;;;
2020/01/17 02:40:50;;;;;;;26.5;21.8;;;;;;;2.23;95.0625;964.8236;;;;
2020/01/17 02:42:33;;;;;;;26.6;22.4;;;;;;;2.21;95.3252;964.8147;;;;
2020/01/17 02:44:40;;;;;;;24.7;20.8;;;;;;;2.29;94.75879;964.8103;;;;
2020/01/17 02:47:05;;;;;;;25.7;21;;;;;;;2.23;95.11914;964.8201;;;;
2020/01/17 02:49:30;;;;;;;26.3;21.3;;;;;;;2.35;94.44336;964.7999;;;;
2020/01/17 02:51:55;;;;;;;26.2;21.7;;;;;;;2.25;94.41016;964.7684;;;;
2020/01/17 02:54:20;;;;;;;27.7;21.9;;;;;;;2.12;94.5625;964.7549;;;;
2020/01/17 02:56:45;;;;;;;25.6;21.2;;;;;;;2.14;94.27539;964.7999;;;;
2020/01/17 02:59:11;;;;;;;24.1;19.7;;;;;;;2.22;93.95215;964.785;;;;
2020/01/17 03:01:36;;;;;;;22.7;20.2;;;;;;;2.17;93.70508;964.7908;;;;
2020/01/17 03:04:01;;;;;;;22.2;19.4;;;;;;;2.09;93.74414;964.8231;;;;
2020/01/17 03:06:27;;;;;;;23.4;20.5;;;;;;;1.81;94.83301;964.7648;;;;
2020/01/17 03:08:52;;;;;;;24.1;20.2;;;;;;;1.81;95.20313;964.7332;;;;
2020/01/17 03:11:17;;;;;;;23.4;19.4;;;;;;;1.93;94.46387;964.7074;;;;
2020/01/17 03:13:42;;;;;;;22.8;19.8;;;;;;;1.8;94.61426;964.7519;;;;
2020/01/17 03:16:07;;;;;;;23.3;19.9;;;;;;;1.78;94.71191;964.6863;;;;
2020/01/17 03:18:32;;;;;;;23.6;20.2;;;;;;;1.98;93.70703;964.647;;;;
2020/01/17 03:20:58;;;;;;;23;20.1;;;;;;;1.84;94.03809;964.6789;;;;
2020/01/17 03:23:23;;;;;;;22.9;19.4;;;;;;;1.9;93.93945;964.6802;;;;
2020/01/17 03:25:49;;;;;;;21.8;18.9;;;;;;;1.95;93.1709;964.6027;;;;
2020/01/17 03:28:14;;;;;;;24.2;20.3;;;;;;;1.6;94.28906;964.5838;;;;
2020/01/17 03:30:39;;;;;;;20.1;17.8;;;;;;;1.8;93.71289;964.6227;;;;
2020/01/17 03:33:04;;;;;;;21.4;18.2;;;;;;;1.81;93.51172;964.5807;;;;
2020/01/17 03:35:29;;;;;;;20.2;17.4;;;;;;;1.75;93.07129;964.6092;;;;
2020/01/17 03:37:55;;;;;;;21.1;17.6;;;;;;;1.76;92.81348;964.5913;;;;
2020/01/17 03:40:20;;;;;;;20;17.3;;;;;;;1.67;92.63672;964.625;;;;
2020/01/17 03:42:45;;;;;;;21.2;17.6;;;;;;;1.66;92.8916;964.6149;;;;
2020/01/17 03:45:10;;;;;;;21.2;18.2;;;;;;;1.44;93.65527;964.5134;;;;
2020/01/17 03:47:36;;;;;;;21.1;17.4;;;;;;;1.38;94.53418;964.545;;;;
2020/01/17 03:50:01;;;;;;;20.3;18.1;;;;;;;1.2;94.74121;964.5153;;;;
2020/01/17 03:52:26;;;;;;;20.5;18.1;;;;;;;1.22;94.66504;964.4736;;;;
2020/01/17 03:54:51;;;;;;;19.4;17.3;;;;;;;1.16;94.78613;964.4522;;;;
2020/01/17 03:57:17;;;;;;;20;17.8;;;;;;;0.96;95.27246;964.4384;;;;
2020/01/17 03:59:42;;;;;;;21;18.7;;;;;;;0.85;96.12402;964.412;;;;
2020/01/17 04:02:27;;;;;;;20.6;17.8;;;;;;;0.93;95.78223;964.4475;;;;
2020/01/17 04:04:52;;;;;;;19.6;17.1;;;;;;;1.14;95.11035;964.4289;;;;
2020/01/17 04:07:17;;;;;;;18.7;16.1;;;;;;;1.2;94.57227;964.4157;;;;
2020/01/17 04:09:42;;;;;;;20.2;16.7;;;;;;;1.19;94.15234;964.3625;;;;
2020/01/17 04:12:07;;;;;;;19.3;17.1;;;;;;;1.2;94.44824;964.39;;;;
2020/01/17 04:14:32;;;;;;;18;16.1;;;;;;;1.15;94.45898;964.3345;;;;
2020/01/17 04:16:57;;;;;;;18.8;16.5;;;;;;;1.08;94.70215;964.3297;;;;
2020/01/17 04:19:22;;;;;;;19.5;16.5;;;;;;;1.11;94.5166;964.3426;;;;
2020/01/17 04:21:47;;;;;;;18.4;16.4;;;;;;;1.05;94.62891;964.3756;;;;
2020/01/17 04:24:12;;;;;;;19.2;16.2;;;;;;;1.18;94.24023;964.3315;;;;
2020/01/17 04:26:37;;;;;;;19.2;16.4;;;;;;;1.14;94.42188;964.3782;;;;
2020/01/17 04:29:02;;;;;;;19.4;17;;;;;;;1.11;94.71777;964.3558;;;;
2020/01/17 04:31:28;;;;;;;18.6;16.2;;;;;;;1.21;94.13574;964.3385;;;;
2020/01/17 04:33:53;;;;;;;20.2;16.9;;;;;;;1.2;94.11133;964.2754;;;;
2020/01/17 04:36:18;;;;;;;18;16.1;;;;;;;1.2;93.88379;964.2964;;;;
2020/01/17 04:38:43;;;;;;;17.8;15.8;;;;;;;1.36;93.66016;964.3188;;;;
2020/01/17 04:43:33;;;;;;;18.2;15.7;;;;;;;1.34;93.99414;964.2813;;;;
2020/01/17 04:45:58;;;;;;;16.7;14.8;;;;;;;1.44;93.49805;964.2553;;;;
2020/01/17 04:48:23;;;;;;;18.7;15.1;;;;;;;1.46;93.3125;964.2806;;;;
2020/01/17 04:50:48;;;;;;;17;15.2;;;;;;;1.37;93.66211;964.2548;;;;
2020/01/17 04:53:13;;;;;;;16.9;14.9;;;;;;;1.38;93.65527;964.2759;;;;
2020/01/17 04:55:38;;;;;;;15.9;14.2;;;;;;;1.43;93.55078;964.2352;;;;
2020/01/17 04:58:03;;;;;;;15.9;14.2;;;;;;;1.44;93.48633;964.2539;;;;
2020/01/17 05:00:28;;;;;;;15.4;13.8;;;;;;;1.39;93.64355;964.1968;;;;
2020/01/17 05:02:54;;;;;;;17.1;14.1;;;;;;;1.4;93.30957;964.2104;;;;
2020/01/17 05:05:19;;;;;;;16.6;14.3;;;;;;;1.42;93.05273;964.1656;;;;
2020/01/17 05:07:44;;;;;;;17.5;14.8;;;;;;;1.34;93.4541;964.1473;;;;
2020/01/17 05:10:10;;;;;;;16.4;13.6;;;;;;;1.49;92.98047;964.1714;;;;
2020/01/17 05:12:35;;;;;;;16.7;14.2;;;;;;;1.33;93.11621;964.1669;;;;
2020/01/17 05:15:00;;;;;;;15.9;13.7;;;;;;;1.39;92.91113;964.1727;;;;
2020/01/17 05:17:25;;;;;;;16.4;13.8;;;;;;;1.38;92.99023;964.1741;;;;
2020/01/17 05:19:50;;;;;;;16.8;13.7;;;;;;;1.37;92.69531;964.1469;;;;
2020/01/17 05:22:15;;;;;;;15.9;13.5;;;;;;;1.28;93.34082;964.1467;;;;
2020/01/17 05:24:40;;;;;;;15.8;14;;;;;;;1.46;92.41113;964.1714;;;;
2020/01/17 05:27:06;;;;;;;14.4;12.9;;;;;;;1.55;91.84277;964.1344;;;;
2020/01/17 05:29:31;;;;;;;15.1;13;;;;;;;1.52;91.79199;964.1061;;;;
2020/01/17 05:31:56;;;;;;;13.8;12.4;;;;;;;1.56;91.36035;964.1086;;;;
2020/01/17 05:34:21;;;;;;;15.3;12.8;;;;;;;1.59;91.13086;964.137;;;;
2020/01/17 05:36:46;;;;;;;13.9;12.4;;;;;;;1.55;91.13281;964.1447;;;;
2020/01/17 05:39:11;;;;;;;13.9;12.4;;;;;;;1.65;90.5791;964.1799;;;;
2020/01/17 05:41:36;;;;;;;15.1;12.5;;;;;;;1.63;90.55273;964.1896;;;;
2020/01/17 05:44:02;;;;;;;13.9;11.8;;;;;;;1.82;89.87109;964.2082;;;;
2020/01/17 05:46:27;;;;;;;14.8;13.1;;;;;;;1.64;90.21875;964.245;;;;
2020/01/17 05:48:52;;;;;;;15.2;13.3;;;;;;;1.5;90.83984;964.2703;;;;
2020/01/17 05:51:18;;;;;;;15.4;12.5;;;;;;;1.4;91.01172;964.2537;;;;
2020/01/17 05:53:43;;;;;;;15.2;13.6;;;;;;;1.47;90.74512;964.2744;;;;
2020/01/17 05:56:08;;;;;;;15.8;13.9;;;;;;;1.38;91.04004;964.222;;;;
2020/01/17 05:58:34;;;;;;;15.7;14;;;;;;;1.37;91.02832;964.2528;;;;
2020/01/17 06:00:59;;;;;;;14.7;12;;;;;;;1.33;91.94238;964.2271;;;;
2020/01/17 06:03:24;;;;;;;14.4;12.7;;;;;;;1.41;91.70117;964.2103;;;;
2020/01/17 06:05:49;;;;;;;14.3;12.8;;;;;;;1.36;91.88086;964.1429;;;;
2020/01/17 06:08:14;;;;;;;16.4;13.8;;;;;;;1.38;91.61426;964.1561;;;;
2020/01/17 06:10:39;;;;;;;16.3;13.6;;;;;;;1.34;92.11328;964.1129;;;;
2020/01/17 06:13:04;;;;;;;17.4;13.7;;;;;;;1.35;92.12891;964.1362;;;;
2020/01/17 06:15:29;;;;;;;14.8;13.3;;;;;;;1.33;92.09766;964.0999;;;;
2020/01/17 06:17:55;;;;;;;16.1;13.5;;;;;;;1.36;92.26367;964.1046;;;;
2020/01/17 06:20:20;;;;;;;15.1;13.5;;;;;;;1.4;91.86621;964.1395;;;;
2020/01/17 06:22:45;;;;;;;15.5;13.9;;;;;;;1.39;91.85254;964.0925;;;;
2020/01/17 06:25:31;;;;;;;16.8;14.8;;;;;;;1.19;92.87793;964.0856;;;;
2020/01/17 06:27:56;;;;;;;14.9;13.3;;;;;;;1.25;92.82617;964.0235;;;;
2020/01/17 06:30:22;;;;;;;16.6;13.9;;;;;;;1.31;92.48828;964.06;;;;
2020/01/17 06:32:47;;;;;;;15.6;13.7;;;;;;;1.24;92.31543;964.0577;;;;
2020/01/17 06:35:12;;;;;;;15;13.4;;;;;;;1.25;92.00586;964.0455;;;;
2020/01/17 06:37:37;;;;;;;16.9;14.3;;;;;;;1.35;91.88965;964.063;;;;
2020/01/17 06:40:02;;;;;;;15.6;14;;;;;;;1.29;91.63965;964.0294;;;;
2020/01/17 06:47:25;;;;;;;17.3;14.9;;;;;;;1.15;92.51172;963.9864;;;;
2020/01/17 06:49:46;;;;;;;16.7;14.9;;;;;;;1.17;92.65039;963.9474;;;;
2020/01/17 06:52:07;;;;;;;16.6;14.5;;;;;;;1.18;92.4043;963.98;;;;
2020/01/17 06:54:32;;;;;;;17.1;14.4;;;;;;;1.15;92.71387;963.9027;;;;
2020/01/17 06:56:58;;;;;;;18.5;15.2;;;;;;;1.18;92.92285;963.8766;;;;
2020/01/17 06:59:23;;;;;;;19;14.8;;;;;;;1.29;92.6084;963.9446;;;;
2020/01/17 07:01:48;;;;;;;18.5;16.2;;;;;;;1.33;92.97852;964.0023;;;;
2020/01/17 07:04:13;;;;;;;19.1;15.9;;;;;;;1.39;93.05762;963.9695;;;;
2020/01/17 07:06:38;;;;;;;21.2;17.8;;;;;;;1.38;93.12402;963.9875;;;;
2020/01/17 07:09:04;;;;;;;22.6;19;;;;;;;1.48;93.39355;964.0103;;;;
2020/01/17 07:11:29;;;;;;;21.3;18;;;;;;;1.41;93.30078;963.9742;;;;
2020/01/17 07:13:54;;;;;;;21.1;18.3;;;;;;;1.47;93.32324;963.9825;;;;
2020/01/17 07:16:19;;;;;;;20.7;18.3;;;;;;;1.46;93.11914;964.0219;;;;
2020/01/17 07:18:44;;;;;;;20.5;18.4;;;;;;;1.49;93.45313;964.0623;;;;
2020/01/17 07:21:09;;;;;;;22.5;19.5;;;;;;;1.48;93.42676;964.1205;;;;
2020/01/17 07:23:34;;;;;;;22.6;19.7;;;;;;;1.52;93.45898;964.1017;;;;
2020/01/17 07:25:59;;;;;;;22.7;20.2;;;;;;;1.58;93.70801;964.1328;;;;
2020/01/17 07:28:24;;;;;;;23.3;20.6;;;;;;;1.64;93.49805;964.1711;;;;
2020/01/17 07:30:50;;;;;;;23.3;20.5;;;;;;;1.76;93.21973;964.1903;;;;
2020/01/17 07:33:15;;;;;;;23.7;21.2;;;;;;;1.69;93.68848;964.1839;;;;
2020/01/17 07:35:40;;;;;;;25.4;21.9;;;;;;;1.75;93.57617;964.1921;;;;
2020/01/17 07:38:05;;;;;;;27.6;23.6;;;;;;;1.71;94.37988;964.1265;;;;
2020/01/17 07:40:30;;;;;;;30.3;26.7;;;;;;;1.79;94.5791;964.1054;;;;
2020/01/17 07:42:55;;;;;;;30.2;25.9;;;;;;;1.89;94.44238;964.0938;;;;
2020/01/17 07:45:20;;;;;;;30.6;25.7;;;;;;;1.94;94.44141;964.0972;;;;
2020/01/17 07:47:46;;;;;;;30.1;26.3;;;;;;;2.02;94.12109;964.1301;;;;
2020/01/17 07:50:11;;;;;;;30;26.2;;;;;;;2.09;93.97852;964.1365;;;;
2020/01/17 07:52:36;;;;;;;32.9;26;;;;;;;2.18;93.60352;964.1058;;;;
2020/01/17 07:55:01;;;;;;;33.2;26.2;;;;;;;2.21;93.57813;964.1115;;;;
2020/01/17 07:57:26;;;;;;;31.6;26;;;;;;;2.27;93.50098;964.0577;;;;
2020/01/17 07:59:51;;;;;;;30;25;;;;;;;2.36;93.25;964.0254;;;;
2020/01/17 08:02:16;;;;;;;29;24.2;;;;;;;2.46;92.8877;964.0369;;;;
2020/01/17 08:07:06;;;;;;;29.3;24.6;;;;;;;2.6;92.46582;963.9625;;;;
2020/01/17 08:09:31;;;;;;;27.5;24.6;;;;;;;2.67;92.37891;963.9584;;;;
2020/01/17 08:11:56;;;;;;;28.4;24.6;;;;;;;2.75;91.99023;963.9789;;;;
2020/01/17 08:14:22;;;;;;;27.6;24.3;;;;;;;2.85;91.96582;963.9436;;;;
2020/01/17 08:16:47;;;;;;;27.5;24.6;;;;;;;2.91;91.65137;963.91;;;;
2020/01/17 08:19:12;;;;;;;27.2;23.8;;;;;;;3.01;91.52637;963.9373;;;;
2020/01/17 08:21:37;;;;;;;25.7;22.8;;;;;;;3;91.60352;963.8755;;;;
2020/01/17 08:24:02;;;;;;;25.5;22.8;;;;;;;3.06;91.4248;963.894;;;;
2020/01/17 08:26:27;;;;;;;26.6;22.5;;;;;;;3.13;91.08887;963.8552;;;;
2020/01/17 08:28:52;;;;;;;23.3;20.9;;;;;;;3.25;90.69531;963.8672;;;;
2020/01/17 08:31:17;;;;;;;24.5;21.3;;;;;;;3.34;90.03613;963.8381;;;;
2020/01/17 08:33:42;;;;;;;24.6;20.9;;;;;;;3.38;89.85254;963.8069;;;;
2020/01/17 08:36:08;;;;;;;22.6;20.2;;;;;;;3.5;89.63965;963.8127;;;;
2020/01/17 08:38:33;;;;;;;21.7;19.4;;;;;;;3.54;89.33008;963.7634;;;;
2020/01/17 08:40:58;;;;;;;27.9;24.3;;;;;;;3.72;88.92578;963.755;;;;
2020/01/17 08:43:23;;;;;;;22.4;19.7;;;;;;;3.76;88.58398;963.7612;;;;
2020/01/17 08:45:52;;;;;;;21.7;18.4;;;;;;;3.8;88.36719;963.6733;;;;
2020/01/17 08:48:47;;;;;;;21.8;19;;;;;;;3.83;88.38379;963.6925;;;;
2020/01/17 08:55:33;;;;;;;17.6;15.8;;;;;;;4.14;87.38281;963.6863;;;;
2020/01/17 08:57:54;;;;;;;19.8;14.6;;;;;;;4.32;86.03613;963.6736;;;;
2020/01/17 09:00:19;;;;;;;15.9;13.5;;;;;;;4.42;85.69141;963.6838;;;;
2020/01/17 09:02:44;;;;;;;18.6;13.8;;;;;;;4.6;84.89844;963.6409;;;;
2020/01/17 09:05:09;;;;;;;16.7;13.5;;;;;;;4.63;84.88281;963.6094;;;;
2020/01/17 09:07:34;;;;;;;14.7;13.1;;;;;;;4.77;84.10547;963.563;;;;
2020/01/17 09:10:00;;;;;;;16.8;13.3;;;;;;;4.94;83.45605;963.5632;;;;
2020/01/17 09:12:25;;;;;;;15.1;12.6;;;;;;;4.95;83.52734;963.6028;;;;
2020/01/17 09:14:59;;;;;;;14.7;12.9;;;;;;;5.01;83.72168;963.584;;;;
2020/01/17 09:17:30;;;;;;;16.3;13.1;;;;;;;4.97;83.64453;963.5878;;;;
2020/01/17 09:19:49;;;;;;;15.4;12.9;;;;;;;5.05;83.85352;963.5574;;;;
2020/01/17 09:22:15;;;;;;;15.1;13.5;;;;;;;5.17;83.02344;963.5647;;;;
2020/01/17 09:24:40;;;;;;;17.1;14.7;;;;;;;5.37;82.25684;963.577;;;;
2020/01/17 09:27:05;;;;;;;16.1;14.2;;;;;;;5.32;82.59863;963.569;;;;
2020/01/17 09:29:30;;;;;;;16.7;14.9;;;;;;;5.28;82.6377;963.611;;;;
2020/01/17 09:31:55;;;;;;;17.1;14.5;;;;;;;5.33;82.41895;963.6699;;;;
2020/01/17 09:34:20;;;;;;;15.4;13.7;;;;;;;5.42;82.41504;963.6943;;;;
2020/01/17 09:36:46;;;;;;;16.7;13.9;;;;;;;5.43;82.10938;963.6436;;;;
2020/01/17 09:39:11;;;;;;;16.6;13.1;;;;;;;5.46;82.0791;963.6555;;;;
2020/01/17 09:41:37;;;;;;;15.6;12.5;;;;;;;5.57;81.88477;963.6257;;;;
2020/01/17 09:44:02;;;;;;;12.4;11.1;;;;;;;5.68;81.32715;963.5497;;;;
2020/01/17 09:48:52;;;;;;;13.2;10.6;;;;;;;6.02;79.61523;963.543;;;;
2020/01/17 09:51:17;;;;;;;11.9;9.7;;;;;;;6.11;79.2334;963.5324;;;;
2020/01/17 09:53:42;;;;;;;10.2;8.6;;;;;;;6.26;77.8125;963.5056;;;;
2020/01/17 09:56:07;;;;;;;10.7;7.9;;;;;;;6.35;77.41992;963.4308;;;;
2020/01/17 09:58:32;;;;;;;9.4;7.2;;;;;;;6.45;77.19727;963.4631;;;;
2020/01/17 10:00:59;;;;;;;10.9;7.2;;;;;;;6.49;76.73633;963.4684;;;;
2020/01/17 10:03:24;;;;;;;9.6;6.4;;;;;;;6.65;75.69434;963.3837;;;;
2020/01/17 10:05:49;;;;;;;7.1;5.8;;;;;;;6.68;75.91602;963.4045;;;;
2020/01/17 10:08:14;;;;;;;8.8;5.7;;;;;;;6.77;75.13281;963.3002;;;;
2020/01/17 10:10:40;;;;;;;7.4;5.3;;;;;;;6.88;74.71973;963.3445;;;;
2020/01/17 10:13:05;;;;;;;7.2;5.6;;;;;;;6.87;74.77344;963.3859;;;;
2020/01/17 10:15:30;;;;;;;9.2;5.4;;;;;;;6.95;74.70801;963.3558;;;;
2020/01/17 10:17:55;;;;;;;7;5.2;;;;;;;7.03;73.93457;963.3567;;;;
2020/01/17 10:20:20;;;;;;;7.6;5.1;;;;;;;7.02;73.81836;963.3733;;;;
2020/01/17 10:22:45;;;;;;;8.2;4.9;;;;;;;7.17;73.54688;963.3723;;;;
2020/01/17 10:25:10;;;;;;;6.4;4.8;;;;;;;7.16;73.31836;963.3155;;;;
2020/01/17 10:27:36;;;;;;;6.8;5;;;;;;;7.25;73.19629;963.3407;;;;
2020/01/17 10:30:01;;;;;;;7.6;4.9;;;;;;;7.39;72.77539;963.2862;;;;
2020/01/17 10:32:27;;;;;;;6.2;4.5;;;;;;;7.43;72.22168;963.2736;;;;
2020/01/17 10:34:52;;;;;;;7.4;4.6;;;;;;;7.58;71.28711;963.2678;;;;
2020/01/17 10:37:17;;;;;;;5.8;4.2;;;;;;;7.55;71.31543;963.269;;;;
2020/01/17 10:39:42;;;;;;;7;4.3;;;;;;;7.64;70.49609;963.236;;;;
2020/01/17 10:42:08;;;;;;;7;4.4;;;;;;;7.67;70.13477;963.1722;;;;
2020/01/17 10:44:33;;;;;;;5.4;4;;;;;;;7.75;69.57715;963.1687;;;;
2020/01/17 10:46:58;;;;;;;6.7;4.2;;;;;;;7.86;69.30859;963.1415;;;;
2020/01/17 10:49:23;;;;;;;5.6;4.4;;;;;;;7.83;69.22461;963.1007;;;;
2020/01/17 10:51:49;;;;;;;5.8;3.9;;;;;;;7.92;68.59668;963.029;;;;
2020/01/17 10:54:14;;;;;;;6.1;4.3;;;;;;;7.81;68.48828;963.0969;;;;
2020/01/17 10:56:39;;;;;;;6.1;4;;;;;;;7.89;69.33789;963.0558;;;;
2020/01/17 10:59:04;;;;;;;5.8;4.5;;;;;;;7.99;68.78027;963.0237;;;;
2020/01/17 11:01:30;;;;;;;6.9;5;;;;;;;8.03;68.30664;962.9567;;;;
2020/01/17 11:03:55;;;;;;;6.8;4.9;;;;;;;8.07;68.30078;962.928;;;;
2020/01/17 11:09:06;;;;;;;7.1;5;;;;;;;8.04;68.54688;962.9667;;;;
2020/01/17 11:13:37;;;;;;;7.5;5.5;;;;;;;8.24;68.22461;962.821;;;;
2020/01/17 11:16:02;;;;;;;6.5;5.7;;;;;;;8.16;68.20215;962.8353;;;;
2020/01/17 11:18:27;;;;;;;7.9;5.5;;;;;;;8.18;68.47949;962.8052;;;;
2020/01/17 11:20:52;;;;;;;7.8;5.9;;;;;;;8.1;69.02637;962.7609;;;;
2020/01/17 11:25:42;;;;;;;7.8;6.3;;;;;;;8.25;68.86719;962.6475;;;;
2020/01/17 11:28:07;;;;;;;8.3;6;;;;;;;8.29;68.65723;962.6343;;;;
2020/01/17 11:30:32;;;;;;;7.6;6;;;;;;;8.28;68.78125;962.5999;;;;
2020/01/17 11:32:57;;;;;;;8.1;5.5;;;;;;;8.37;68.71387;962.5717;;;;
2020/01/17 11:35:22;;;;;;;7.2;5.4;;;;;;;8.58;67.76367;962.5739;;;;
2020/01/17 11:37:48;;;;;;;7.7;5.3;;;;;;;8.52;68.13184;962.5597;;;;
2020/01/17 11:40:13;;;;;;;6.8;5.3;;;;;;;8.57;67.73926;962.5631;;;;
2020/01/17 11:42:38;;;;;;;6.8;4.8;;;;;;;8.65;67.14551;962.5837;;;;
2020/01/17 11:45:03;;;;;;;6.5;4.8;;;;;;;8.56;67.69043;962.5637;;;;
2020/01/17 11:47:29;;;;;;;6.7;4.6;;;;;;;8.75;66.77051;962.5971;;;;
2020/01/17 11:49:54;;;;;;;7.4;4.7;;;;;;;8.71;66.75195;962.4619;;;;
2020/01/17 11:52:19;;;;;;;5.8;4.6;;;;;;;8.92;65.81055;962.4091;;;;
2020/01/17 11:54:44;;;;;;;5.6;4.3;;;;;;;8.94;65.95117;962.4695;;;;
2020/01/17 11:57:09;;;;;;;6.2;4.8;;;;;;;8.98;66.27734;962.4083;;;;
2020/01/17 11:59:34;;;;;;;5.8;4.3;;;;;;;8.97;65.86426;962.3273;;;;
2020/01/17 12:01:59;;;;;;;6.5;4.1;;;;;;;8.94;65.83594;962.3402;;;;
2020/01/17 12:04:24;;;;;;;6;4.2;;;;;;;8.94;66.30664;962.3378;;;;
2020/01/17 12:06:50;;;;;;;4.9;3.7;;;;;;;9.08;65.23828;962.3332;;;;
2020/01/17 12:09:15;;;;;;;6.6;3.9;;;;;;;9.04;65.2793;962.298;;;;
2020/01/17 12:11:41;;;;;;;6.1;3.9;;;;;;;9.24;64.84961;962.2645;;;;
2020/01/17 12:14:06;;;;;;;5.5;3.4;;;;;;;9.21;64.51172;962.2993;;;;
2020/01/17 12:16:37;;;;;;;6.1;4;;;;;;;9.3;64.53711;962.2238;;;;
2020/01/17 12:18:56;;;;;;;5.7;3.6;;;;;;;9.36;64.5459;962.18;;;;
2020/01/17 12:21:23;;;;;;;5.4;3.5;;;;;;;9.37;64.24902;962.1658;;;;
2020/01/17 12:23:48;;;;;;;5.9;3.3;;;;;;;9.31;64.03418;962.2212;;;;
2020/01/17 12:26:13;;;;;;;5.1;2.9;;;;;;;9.37;63.65234;962.1099;;;;
2020/01/17 12:28:38;;;;;;;5.1;3.1;;;;;;;9.53;63.0332;962.1091;;;;
2020/01/17 12:31:04;;;;;;;4.6;2.9;;;;;;;9.58;62.68457;962.1008;;;;
2020/01/17 12:33:29;;;;;;;4.3;3.2;;;;;;;9.59;62.79004;962.0734;;;;
2020/01/17 12:35:54;;;;;;;5.7;3;;;;;;;9.57;62.85449;962.0613;;;;
2020/01/17 12:38:19;;;;;;;4;2.7;;;;;;;9.59;62.80078;962.0497;;;;
2020/01/17 12:40:45;;;;;;;4.8;3;;;;;;;9.7;62.27734;962.0168;;;;
2020/01/17 12:43:10;;;;;;;4.7;2.6;;;;;;;9.78;61.43848;962.044;;;;
2020/01/17 12:45:35;;;;;;;5.2;2.5;;;;;;;9.83;61.90527;961.99;;;;
2020/01/17 12:48:00;;;;;;;5.6;2.4;;;;;;;9.8;61.71777;962.004;;;;
2020/01/17 12:50:25;;;;;;;4.7;2.6;;;;;;;9.82;61.51367;961.9631;;;;
2020/01/17 12:52:50;;;;;;;4.3;2.4;;;;;;;9.93;61.25293;961.8781;;;;
2020/01/17 12:55:16;;;;;;;4;2.5;;;;;;;9.76;61.21777;961.8705;;;;
2020/01/17 12:57:41;;;;;;;5.6;2.6;;;;;;;9.78;61.55371;961.9171;;;;
2020/01/17 13:00:06;;;;;;;4.9;2.3;;;;;;;9.72;61.75098;961.8878;;;;
2020/01/17 13:02:31;;;;;;;5.6;2.8;;;;;;;9.9;61.29395;961.8248;;;;
2020/01/17 13:04:56;;;;;;;4.4;2.5;;;;;;;9.94;60.96582;961.875;;;;
2020/01/17 13:07:22;;;;;;;3.2;2.4;;;;;;;9.89;61.62695;961.8289;;;;
2020/01/17 13:10:33;;;;;;;4.4;2.8;;;;;;;10.01;61.27637;961.853;;;;
2020/01/17 13:13:02;;;;;;;4.2;2.4;;;;;;;9.92;61.15918;961.832;;;;
2020/01/17 13:14:56;;;;;;;4.2;2.5;;;;;;;9.94;61.16113;961.8465;;;;
2020/01/17 13:17:03;;;;;;;4.7;2.5;;;;;;;9.89;61.29297;961.8401;;;;
2020/01/17 13:19:27;;;;;;;4.3;2.3;;;;;;;9.92;61.05664;961.8606;;;;
2020/01/17 13:21:52;;;;;;;6.2;3.1;;;;;;;10.05;60.67285;961.803;;;;
2020/01/17 13:24:17;;;;;;;4.8;2.6;;;;;;;10.14;60.47754;961.8064;;;;
2020/01/17 13:26:42;;;;;;;3.3;2.4;;;;;;;10.09;60.68945;961.8273;;;;
2020/01/17 13:29:07;;;;;;;3.3;2.2;;;;;;;10.24;59.66504;961.827;;;;
2020/01/17 13:31:33;;;;;;;3.5;2.2;;;;;;;10.12;60.37207;961.8094;;;;
2020/01/17 13:33:58;;;;;;;3.5;2.2;;;;;;;10.15;60.2373;961.8134;;;;
2020/01/17 13:36:23;;;;;;;4.6;2.4;;;;;;;10.19;59.7832;961.8484;;;;
2020/01/17 13:38:48;;;;;;;3.7;2.4;;;;;;;10.23;59.57031;961.8492;;;;
2020/01/17 13:41:13;;;;;;;4.1;2.1;;;;;;;10.23;60.00684;961.8081;;;;
2020/01/17 13:43:39;;;;;;;4.8;2.3;;;;;;;10.18;59.35742;961.7668;;;;
2020/01/17 13:46:04;;;;;;;3.7;2.1;;;;;;;10.19;59.33496;961.7653;;;;
2020/01/17 13:48:29;;;;;;;5.2;2.2;;;;;;;10.08;59.87109;961.6551;;;;
2020/01/17 13:50:54;;;;;;;5.7;2.6;;;;;;;10.16;60.03125;961.6718;;;;
2020/01/17 13:53:19;;;;;;;3.9;2.2;;;;;;;10.14;59.74316;961.6642;;;;
2020/01/17 13:55:45;;;;;;;5;2.4;;;;;;;10.22;59.33887;961.6586;;;;
2020/01/17 13:58:10;;;;;;;3.6;2.1;;;;;;;10.15;59.75488;961.6481;;;;
2020/01/17 14:00:35;;;;;;;5.2;2.2;;;;;;;10.09;59.89648;961.6442;;;;
2020/01/17 14:03:00;;;;;;;3.7;1.9;;;;;;;9.97;60.35059;961.6339;;;;
2020/01/17 14:05:25;;;;;;;3.5;2.4;;;;;;;9.92;60.81445;961.6847;;;;
2020/01/17 14:07:51;;;;;;;3.8;2.4;;;;;;;9.95;60.36035;961.6936;;;;
2020/01/17 14:10:16;;;;;;;4.1;2.3;;;;;;;9.93;60.51758;961.6755;;;;
2020/01/17 14:12:41;;;;;;;4.1;2.2;;;;;;;9.94;60.32324;961.731;;;;
2020/01/17 14:15:06;;;;;;;6.8;2.9;;;;;;;9.86;61.01367;961.7419;;;;
2020/01/17 14:17:31;;;;;;;4.3;2.2;;;;;;;9.85;60.87402;961.7099;;;;
2020/01/17 14:19:57;;;;;;;5.3;2.4;;;;;;;9.95;60.30176;961.6406;;;;
2020/01/17 14:22:22;;;;;;;3.2;2.2;;;;;;;9.98;60.71973;961.6617;;;;
2020/01/17 14:24:47;;;;;;;4.5;2.2;;;;;;;9.86;60.56543;961.6448;;;;
2020/01/17 14:27:13;;;;;;;5.9;2.3;;;;;;;9.8;60.4873;961.6898;;;;
2020/01/17 14:29:38;;;;;;;4.6;2.3;;;;;;;9.73;60.75293;961.7459;;;;
2020/01/17 14:32:03;;;;;;;4.6;2.3;;;;;;;9.75;60.90625;961.8049;;;;
2020/01/17 14:34:28;;;;;;;6.1;2.7;;;;;;;9.74;60.93848;961.8128;;;;
2020/01/17 14:36:53;;;;;;;6.1;2.6;;;;;;;9.7;61.04785;961.7629;;;;
2020/01/17 14:39:19;;;;;;;4.9;2.5;;;;;;;9.72;60.78613;961.791;;;;
2020/01/17 14:41:44;;;;;;;5.4;2.7;;;;;;;9.76;61.04492;961.7166;;;;